createdAt,value
2023-01-09T00:00:32.994Z,43.62
2023-01-09T00:01:32.968Z,43.37
2023-01-09T00:02:33.003Z,43.76
2023-01-09T00:03:33.012Z,44.24
2023-01-09T00:04:32.941Z,43.05
2023-01-09T00:05:32.924Z,43.20
2023-01-09T00:06:32.917Z,44.16
2023-01-09T00:07:32.896Z,42.04
2023-01-09T00:08:32.916Z,43.71
2023-01-09T00:09:32.913Z,43.78
2023-01-09T00:10:32.876Z,44.76
2023-01-09T00:11:32.862Z,45.74
2023-01-09T00:12:32.846Z,43.76
2023-01-09T00:13:32.884Z,45.04
2023-01-09T00:14:32.832Z,44.55
2023-01-09T00:15:32.818Z,43.40
2023-01-09T00:16:32.892Z,44.40
2023-01-09T00:17:32.839Z,43.86
2023-01-09T00:18:32.800Z,46.41
2023-01-09T00:19:32.795Z,49.90
2023-01-09T00:20:32.779Z,51.12
2023-01-09T00:21:32.743Z,50.58
2023-01-09T00:22:32.746Z,48.60
2023-01-09T00:23:32.760Z,48.01
2023-01-09T00:24:32.761Z,49.21
2023-01-09T00:25:32.718Z,54.51
2023-01-09T00:26:32.717Z,56.68
2023-01-09T00:27:32.704Z,58.27
2023-01-09T00:28:32.733Z,57.14
2023-01-09T00:29:32.676Z,57.18
2023-01-09T00:30:32.733Z,57.39
2023-01-09T00:31:32.639Z,57.89
2023-01-09T00:32:33.641Z,58.48
2023-01-09T00:33:32.637Z,59.66
2023-01-09T00:34:32.607Z,59.72
2023-01-09T00:35:32.607Z,60.71
2023-01-09T00:36:32.597Z,59.64
2023-01-09T00:37:32.587Z,59.68
2023-01-09T00:38:32.598Z,59.71
2023-01-09T00:39:32.564Z,59.68
2023-01-09T00:40:32.552Z,59.38
2023-01-09T00:41:32.548Z,57.31
2023-01-09T00:42:32.577Z,55.61
2023-01-09T00:43:32.546Z,56.99
2023-01-09T00:44:32.523Z,57.79
2023-01-09T00:45:32.533Z,59.60
2023-01-09T00:46:32.468Z,60.42
2023-01-09T00:47:32.517Z,59.32
2023-01-09T00:48:32.507Z,59.34
2023-01-09T00:49:32.473Z,60.80
2023-01-09T00:50:32.452Z,61.40
2023-01-09T00:51:32.450Z,63.47
2023-01-09T00:52:32.500Z,60.94
2023-01-09T00:53:32.469Z,59.99
2023-01-09T00:54:32.423Z,58.89
2023-01-09T00:55:32.408Z,59.65
2023-01-09T00:56:32.400Z,58.96
2023-01-09T00:57:32.379Z,57.72
2023-01-09T00:58:32.418Z,57.47
2023-01-09T00:59:32.372Z,56.83
2023-01-09T01:00:32.345Z,56.87
2023-01-09T01:01:32.539Z,57.27
2023-01-09T01:02:32.436Z,58.01
2023-01-09T01:03:33.367Z,58.37
2023-01-09T01:04:32.319Z,57.59
2023-01-09T01:05:32.304Z,57.63
2023-01-09T01:06:32.287Z,56.60
2023-01-09T01:07:32.289Z,55.81
2023-01-09T01:08:32.285Z,57.13
2023-01-09T01:09:32.249Z,57.95
2023-01-09T01:10:32.254Z,59.83
2023-01-09T01:11:32.281Z,60.07
2023-01-09T01:12:32.233Z,59.80
2023-01-09T01:13:32.232Z,59.69
2023-01-09T01:14:32.196Z,60.42
2023-01-09T01:15:32.213Z,59.36
2023-01-09T01:16:32.199Z,58.27
2023-01-09T01:17:32.177Z,58.32
2023-01-09T01:18:32.180Z,59.22
2023-01-09T01:19:32.165Z,58.02
2023-01-09T01:20:32.160Z,57.91
2023-01-09T01:21:32.118Z,57.41
2023-01-09T01:22:32.139Z,57.52
2023-01-09T01:23:32.149Z,57.93
2023-01-09T01:24:32.151Z,57.00
2023-01-09T01:25:32.103Z,56.29
2023-01-09T01:26:32.104Z,56.34
2023-01-09T01:27:32.070Z,55.96
2023-01-09T01:28:32.070Z,55.76
2023-01-09T01:29:32.052Z,57.29
2023-01-09T01:30:32.069Z,56.39
2023-01-09T01:31:32.065Z,55.31
2023-01-09T01:32:32.024Z,55.16
2023-01-09T01:33:32.011Z,55.99
2023-01-09T01:34:31.987Z,57.25
2023-01-09T01:35:31.989Z,57.32
2023-01-09T01:36:31.974Z,57.15
2023-01-09T01:37:32.007Z,57.66
2023-01-09T01:38:31.947Z,58.27
2023-01-09T01:39:31.977Z,58.48
2023-01-09T01:40:31.973Z,56.71
2023-01-09T01:41:31.935Z,55.80
2023-01-09T01:42:31.977Z,55.19
2023-01-09T01:43:31.931Z,56.32
2023-01-09T01:44:31.898Z,57.95
2023-01-09T01:45:31.875Z,59.66
2023-01-09T01:46:31.880Z,58.94
2023-01-09T01:47:31.875Z,57.82
2023-01-09T01:48:31.882Z,58.01
2023-01-09T01:49:31.862Z,57.85
2023-01-09T01:50:31.881Z,55.73
2023-01-09T01:51:31.852Z,56.87
2023-01-09T01:52:31.827Z,57.72
2023-01-09T01:53:31.815Z,57.64
2023-01-09T01:54:31.800Z,58.05
2023-01-09T01:55:31.815Z,57.34
2023-01-09T01:56:31.771Z,56.50
2023-01-09T01:57:31.769Z,57.03
2023-01-09T01:58:32.765Z,59.35
2023-01-09T01:59:31.745Z,58.47
2023-01-09T02:00:31.755Z,57.55
2023-01-09T02:01:31.792Z,56.28
2023-01-09T02:02:31.801Z,55.88
2023-01-09T02:03:31.771Z,56.15
2023-01-09T02:04:31.708Z,57.06
2023-01-09T02:05:31.688Z,58.75
2023-01-09T02:06:31.669Z,59.54
2023-01-09T02:07:31.655Z,60.36
2023-01-09T02:08:31.620Z,62.10
2023-01-09T02:09:31.644Z,60.94
2023-01-09T02:10:31.627Z,60.39
2023-01-09T02:11:31.620Z,60.13
2023-01-09T02:12:31.613Z,59.60
2023-01-09T02:13:31.593Z,59.64
2023-01-09T02:14:31.602Z,61.92
2023-01-09T02:15:31.577Z,61.83
2023-01-09T02:16:31.566Z,59.38
2023-01-09T02:17:31.570Z,59.06
2023-01-09T02:18:31.570Z,58.74
2023-01-09T02:19:31.553Z,58.21
2023-01-09T02:20:31.525Z,59.87
2023-01-09T02:21:31.526Z,61.01
2023-01-09T02:22:31.508Z,58.94
2023-01-09T02:23:31.502Z,56.53
2023-01-09T02:24:31.488Z,55.48
2023-01-09T02:25:31.492Z,57.13
2023-01-09T02:26:31.468Z,57.92
2023-01-09T02:27:31.460Z,55.84
2023-01-09T02:28:31.445Z,55.99
2023-01-09T02:29:31.463Z,54.45
2023-01-09T02:30:31.421Z,56.60
2023-01-09T02:31:31.460Z,58.85
2023-01-09T02:32:31.444Z,58.67
2023-01-09T02:33:31.403Z,60.37
2023-01-09T02:34:31.392Z,56.37
2023-01-09T02:35:31.372Z,55.68
2023-01-09T02:36:31.359Z,52.92
2023-01-09T02:37:31.370Z,57.75
2023-01-09T02:38:31.333Z,60.62
2023-01-09T02:39:31.353Z,60.53
2023-01-09T02:40:31.329Z,60.55
2023-01-09T02:41:31.321Z,62.01
2023-01-09T02:42:31.310Z,62.45
2023-01-09T02:43:31.285Z,58.37
2023-01-09T02:44:31.281Z,58.81
2023-01-09T02:45:31.325Z,62.23
2023-01-09T02:46:31.251Z,62.65
2023-01-09T02:47:31.242Z,61.50
2023-01-09T02:48:31.261Z,58.70
2023-01-09T02:49:31.241Z,57.50
2023-01-09T02:50:31.259Z,55.52
2023-01-09T02:51:31.216Z,53.47
2023-01-09T02:52:31.203Z,50.97
2023-01-09T02:53:31.191Z,52.62
2023-01-09T02:54:31.199Z,53.52
2023-01-09T02:55:31.166Z,52.44
2023-01-09T02:56:31.160Z,54.34
2023-01-09T02:57:31.147Z,52.50
2023-01-09T02:58:31.142Z,51.62
2023-01-09T02:59:31.146Z,53.87
2023-01-09T03:00:31.107Z,51.65
2023-01-09T03:01:31.148Z,49.35
2023-01-09T03:02:31.191Z,49.70
2023-01-09T03:03:31.101Z,47.94
2023-01-09T03:04:31.090Z,50.04
2023-01-09T03:05:31.063Z,51.03
2023-01-09T03:06:31.072Z,50.41
2023-01-09T03:07:31.061Z,49.55
2023-01-09T03:08:31.025Z,48.70
2023-01-09T03:09:31.054Z,48.70
2023-01-09T03:10:31.033Z,49.19
2023-01-09T03:11:31.001Z,49.42
2023-01-09T03:12:31.006Z,46.86
2023-01-09T03:13:31.014Z,47.33
2023-01-09T03:14:30.965Z,47.38
2023-01-09T03:15:30.970Z,49.33
2023-01-09T03:16:30.980Z,52.96
2023-01-09T03:17:30.964Z,51.68
2023-01-09T03:18:30.943Z,50.36
2023-01-09T03:19:30.959Z,51.01
2023-01-09T03:20:30.914Z,52.16
2023-01-09T03:21:30.897Z,52.08
2023-01-09T03:22:30.912Z,51.60
2023-01-09T03:23:30.905Z,49.48
2023-01-09T03:24:30.896Z,48.88
2023-01-09T03:25:30.875Z,48.45
2023-01-09T03:26:30.830Z,48.04
2023-01-09T03:27:30.873Z,48.86
2023-01-09T03:28:30.817Z,49.26
2023-01-09T03:29:30.829Z,48.68
2023-01-09T03:30:30.818Z,48.77
2023-01-09T03:31:30.815Z,48.58
2023-01-09T03:32:30.794Z,52.48
2023-01-09T03:33:30.789Z,52.29
2023-01-09T03:34:30.819Z,51.37
2023-01-09T03:35:30.765Z,48.56
2023-01-09T03:36:30.761Z,47.99
2023-01-09T03:37:30.762Z,48.83
2023-01-09T03:38:30.761Z,51.59
2023-01-09T03:39:30.768Z,50.87
2023-01-09T03:40:30.724Z,50.90
2023-01-09T03:41:30.680Z,51.98
2023-01-09T03:42:30.680Z,54.82
2023-01-09T03:43:30.691Z,51.90
2023-01-09T03:44:30.675Z,49.78
2023-01-09T03:45:30.717Z,49.33
2023-01-09T03:46:30.710Z,49.38
2023-01-09T03:47:30.626Z,47.65
2023-01-09T03:48:30.631Z,52.11
2023-01-09T03:49:30.621Z,49.48
2023-01-09T03:50:30.634Z,49.74
2023-01-09T03:51:30.605Z,54.46
2023-01-09T03:52:30.591Z,48.77
2023-01-09T03:53:30.598Z,46.48
2023-01-09T03:54:30.586Z,48.41
2023-01-09T03:55:30.557Z,47.78
2023-01-09T03:56:30.557Z,47.82
2023-01-09T03:57:30.534Z,49.40
2023-01-09T03:58:30.533Z,47.33
2023-01-09T03:59:30.567Z,50.51
2023-01-09T04:00:30.517Z,47.38
2023-01-09T04:01:30.661Z,46.93
2023-01-09T04:02:30.500Z,47.43
2023-01-09T04:03:30.582Z,47.21
2023-01-09T04:04:31.097Z,47.57
2023-01-09T04:05:31.479Z,48.26
2023-01-09T04:06:30.466Z,50.11
2023-01-09T04:07:30.435Z,46.77
2023-01-09T04:08:30.439Z,51.96
2023-01-09T04:09:30.417Z,54.35
2023-01-09T04:10:30.454Z,49.13
2023-01-09T04:11:30.406Z,50.23
2023-01-09T04:12:30.424Z,48.32
2023-01-09T04:13:30.406Z,48.67
2023-01-09T04:14:30.393Z,49.49
2023-01-09T04:15:30.392Z,51.33
2023-01-09T04:16:30.403Z,52.32
2023-01-09T04:17:30.335Z,51.56
2023-01-09T04:18:30.340Z,46.99
2023-01-09T04:19:30.365Z,45.63
2023-01-09T04:20:30.334Z,52.12
2023-01-09T04:21:30.306Z,50.32
2023-01-09T04:22:30.293Z,51.19
2023-01-09T04:23:30.273Z,54.65
2023-01-09T04:24:30.266Z,50.05
2023-01-09T04:25:30.282Z,48.86
2023-01-09T04:26:30.254Z,47.18
2023-01-09T04:27:30.263Z,46.01
2023-01-09T04:28:30.213Z,48.47
2023-01-09T04:29:30.202Z,46.25
2023-01-09T04:30:30.237Z,46.23
2023-01-09T04:31:30.281Z,46.09
2023-01-09T04:32:30.177Z,46.34
2023-01-09T04:33:30.179Z,51.17
2023-01-09T04:34:30.162Z,45.77
2023-01-09T04:35:30.179Z,49.35
2023-01-09T04:36:30.149Z,47.38
2023-01-09T04:37:30.144Z,50.49
2023-01-09T04:38:30.100Z,50.94
2023-01-09T04:39:30.121Z,50.56
2023-01-09T04:40:30.146Z,51.04
2023-01-09T04:41:30.099Z,52.28
2023-01-09T04:42:30.069Z,55.37
2023-01-09T04:43:30.093Z,52.24
2023-01-09T04:44:30.058Z,48.46
2023-01-09T04:45:30.151Z,48.75
2023-01-09T04:46:30.059Z,49.23
2023-01-09T04:47:30.037Z,45.82
2023-01-09T04:48:30.056Z,52.31
2023-01-09T04:49:30.027Z,49.10
2023-01-09T04:50:31.446Z,48.14
2023-01-09T04:51:31.011Z,50.27
2023-01-09T04:52:29.998Z,47.59
2023-01-09T04:53:29.958Z,50.91
2023-01-09T04:54:29.962Z,47.10
2023-01-09T04:55:29.990Z,46.06
2023-01-09T04:56:29.943Z,45.24
2023-01-09T04:57:29.937Z,46.76
2023-01-09T04:58:29.918Z,50.96
2023-01-09T04:59:29.907Z,51.28
2023-01-09T05:00:29.912Z,51.58
2023-01-09T05:01:29.978Z,47.84
2023-01-09T05:02:29.870Z,49.37
2023-01-09T05:03:29.856Z,48.74
2023-01-09T05:04:29.915Z,50.56
2023-01-09T05:05:29.846Z,46.63
2023-01-09T05:06:29.832Z,46.16
2023-01-09T05:07:29.825Z,47.01
2023-01-09T05:08:29.832Z,46.09
2023-01-09T05:09:29.814Z,46.01
2023-01-09T05:10:29.821Z,45.68
2023-01-09T05:11:29.799Z,50.53
2023-01-09T05:12:29.786Z,46.37
2023-01-09T05:13:29.767Z,47.96
2023-01-09T05:14:29.797Z,48.58
2023-01-09T05:15:29.755Z,51.03
2023-01-09T05:16:29.819Z,49.16
2023-01-09T05:17:29.705Z,45.48
2023-01-09T05:18:29.715Z,50.11
2023-01-09T05:19:29.728Z,50.66
2023-01-09T05:20:29.736Z,43.83
2023-01-09T05:21:29.711Z,50.87
2023-01-09T05:22:29.680Z,51.08
2023-01-09T05:23:29.680Z,53.05
2023-01-09T05:24:29.676Z,51.81
2023-01-09T05:25:29.664Z,51.63
2023-01-09T05:26:29.649Z,45.54
2023-01-09T05:27:29.625Z,46.00
2023-01-09T05:28:29.630Z,46.56
2023-01-09T05:29:29.621Z,47.23
2023-01-09T05:30:29.629Z,50.58
2023-01-09T05:31:29.636Z,51.70
2023-01-09T05:32:29.616Z,53.81
2023-01-09T05:33:29.580Z,50.60
2023-01-09T05:34:29.571Z,46.79
2023-01-09T05:35:29.578Z,52.68
2023-01-09T05:36:29.544Z,53.85
2023-01-09T05:37:29.563Z,48.18
2023-01-09T05:38:29.546Z,47.12
2023-01-09T05:39:29.533Z,48.85
2023-01-09T05:40:39.574Z,51.96
2023-01-09T05:41:31.495Z,51.46
2023-01-09T05:42:29.501Z,49.23
2023-01-09T05:43:29.483Z,47.38
2023-01-09T05:44:29.456Z,51.87
2023-01-09T05:45:29.533Z,47.95
2023-01-09T05:46:29.453Z,55.55
2023-01-09T05:47:29.423Z,52.07
2023-01-09T05:48:29.431Z,50.98
2023-01-09T05:49:29.416Z,48.01
2023-01-09T05:50:29.427Z,53.61
2023-01-09T05:51:30.408Z,49.61
2023-01-09T05:52:29.391Z,51.23
2023-01-09T05:53:29.385Z,52.32
2023-01-09T05:54:29.371Z,55.89
2023-01-09T05:55:29.336Z,48.06
2023-01-09T05:56:29.355Z,49.48
2023-01-09T05:57:29.351Z,52.69
2023-01-09T05:58:29.332Z,54.41
2023-01-09T05:59:29.326Z,49.07
2023-01-09T06:00:29.300Z,52.27
2023-01-09T06:01:29.365Z,54.81
2023-01-09T06:02:29.386Z,53.69
2023-01-09T06:03:29.314Z,50.52
2023-01-09T06:04:29.236Z,47.11
2023-01-09T06:05:29.249Z,48.09
2023-01-09T06:06:29.228Z,50.36
2023-01-09T06:07:29.236Z,51.03
2023-01-09T06:08:29.273Z,48.45
2023-01-09T06:09:29.209Z,54.97
2023-01-09T06:10:29.204Z,49.65
2023-01-09T06:11:29.204Z,50.42
2023-01-09T06:17:00.048Z,52.59
2023-01-09T06:20:27.292Z,55.79
2023-01-09T06:23:59.881Z,55.72
2023-01-09T06:27:26.705Z,50.05
2023-01-09T06:30:34.449Z,49.46
2023-01-09T06:34:06.895Z,50.34
2023-01-09T06:35:06.928Z,55.72
2023-01-09T06:38:41.099Z,51.03
2023-01-09T06:40:44.875Z,52.58
2023-01-09T06:44:19.157Z,52.96
2023-01-09T06:45:19.333Z,50.42
2023-01-09T06:48:47.187Z,56.94
2023-01-09T06:49:49.699Z,56.07
2023-01-09T06:53:15.566Z,48.19
2023-01-09T06:56:58.419Z,53.32
2023-01-09T06:58:00.173Z,53.42
2023-01-09T06:58:58.365Z,51.73
2023-01-09T07:02:34.695Z,49.50
2023-01-09T07:03:45.931Z,53.59
2023-01-09T07:04:34.626Z,48.45
2023-01-09T07:05:35.124Z,53.89
2023-01-09T07:06:35.377Z,54.05
2023-01-09T07:10:12.431Z,54.67
2023-01-09T07:11:12.457Z,53.45
2023-01-09T07:12:12.378Z,52.30
2023-01-09T07:13:12.427Z,48.24
2023-01-09T07:14:13.700Z,54.62
2023-01-09T07:15:14.715Z,50.98
2023-01-09T07:18:39.000Z,48.24
2023-01-09T07:19:39.019Z,54.34
2023-01-09T07:20:39.059Z,49.24
2023-01-09T07:21:39.042Z,54.61
2023-01-09T07:22:39.034Z,54.10
2023-01-09T07:26:05.786Z,51.83
2023-01-09T07:27:05.740Z,49.67
2023-01-09T07:28:05.750Z,50.57
2023-01-09T07:29:05.884Z,53.47
2023-01-09T07:32:32.570Z,54.22
2023-01-09T07:36:31.970Z,51.39
2023-01-09T07:37:31.924Z,52.71
2023-01-09T07:40:59.048Z,51.02
2023-01-09T14:15:09.809Z,48.75
2023-01-09T14:16:09.831Z,55.10
2023-01-09T14:17:09.778Z,50.42
2023-01-09T14:18:09.787Z,54.72
2023-01-09T14:19:09.764Z,56.65
2023-01-09T14:20:09.759Z,50.78
2023-01-09T14:21:09.738Z,51.75
2023-01-09T14:22:09.741Z,53.41
2023-01-09T14:23:50.200Z,51.35
2023-01-09T14:24:10.706Z,52.11
2023-01-09T14:25:09.776Z,53.75
2023-01-09T14:26:09.686Z,56.54
2023-01-09T14:27:09.681Z,48.39
2023-01-09T14:28:09.677Z,53.36
2023-01-09T14:29:09.653Z,52.77
2023-01-09T14:30:09.672Z,49.00
2023-01-09T14:31:09.638Z,51.68
2023-01-09T14:32:09.625Z,56.76
2023-01-09T14:33:09.616Z,57.42
2023-01-09T14:34:23.218Z,53.36
2023-01-09T14:35:10.620Z,50.40
2023-01-09T14:36:09.582Z,53.96
2023-01-09T14:37:09.683Z,51.90
2023-01-09T14:38:09.563Z,53.81
2023-01-09T14:39:09.555Z,55.06
2023-01-09T14:40:09.600Z,54.48
2023-01-09T14:41:09.529Z,48.87
2023-01-09T14:42:09.518Z,53.85
2023-01-09T14:43:09.525Z,49.71
2023-01-09T14:44:09.507Z,55.91
2023-01-09T14:45:09.501Z,53.41
2023-01-09T14:46:09.673Z,50.72
2023-01-09T14:47:09.468Z,54.36
2023-01-09T14:48:09.458Z,51.31
2023-01-09T14:49:09.464Z,55.06
2023-01-09T14:50:09.586Z,53.90
2023-01-09T14:51:09.425Z,51.75
2023-01-09T14:52:09.420Z,54.04
2023-01-09T14:53:09.410Z,49.47
2023-01-09T14:54:09.402Z,50.35
2023-01-09T14:55:09.531Z,49.31
2023-01-09T14:56:09.443Z,51.50
2023-01-09T14:57:09.364Z,52.29
2023-01-09T14:58:09.384Z,51.94
2023-01-09T14:59:09.346Z,53.71
2023-01-09T15:00:09.468Z,52.69
2023-01-09T15:01:09.380Z,52.84
2023-01-09T15:02:09.412Z,56.60
2023-01-09T15:03:09.323Z,52.54
2023-01-09T15:04:09.295Z,52.28
2023-01-09T15:05:09.388Z,52.95
2023-01-09T15:06:09.289Z,53.03
2023-01-09T15:07:09.301Z,53.68
2023-01-09T15:08:09.268Z,56.47
2023-01-09T15:09:09.304Z,54.29
2023-01-09T15:10:09.335Z,52.66
2023-01-09T15:11:09.233Z,53.85
2023-01-09T15:12:09.208Z,52.04
2023-01-09T15:13:09.196Z,53.64
2023-01-09T15:14:09.184Z,56.36
2023-01-09T15:15:09.169Z,55.77
2023-01-09T15:16:09.249Z,53.70
2023-01-09T15:17:09.158Z,54.01
2023-01-09T15:18:09.204Z,53.47
2023-01-09T15:19:09.130Z,53.35
2023-01-09T15:20:09.150Z,54.22
2023-01-09T15:21:09.124Z,53.82
2023-01-09T15:22:09.101Z,51.55
2023-01-09T15:23:09.088Z,53.37
2023-01-09T15:24:09.079Z,54.51
2023-01-09T15:25:09.068Z,55.46
2023-01-09T15:26:09.123Z,54.73
2023-01-09T15:27:09.044Z,55.98
2023-01-09T15:28:09.031Z,52.29
2023-01-09T15:29:09.026Z,55.93
2023-01-09T15:30:09.015Z,54.80
2023-01-09T15:31:09.018Z,50.64
2023-01-09T15:32:08.992Z,50.85
2023-01-09T15:33:08.978Z,54.97
2023-01-09T15:34:08.991Z,52.67
2023-01-09T15:35:08.961Z,51.36
2023-01-09T15:36:09.014Z,53.18
2023-01-09T15:37:09.055Z,56.03
2023-01-09T15:38:08.930Z,54.30
2023-01-09T15:39:08.919Z,52.46
2023-01-09T15:40:08.910Z,52.31
2023-01-09T15:41:08.915Z,53.28
2023-01-09T15:42:08.895Z,54.59
2023-01-09T15:43:08.878Z,52.79
2023-01-09T15:44:08.866Z,53.93
2023-01-09T15:45:08.856Z,50.80
2023-01-09T15:46:08.975Z,50.47
2023-01-09T15:47:08.857Z,48.38
2023-01-09T15:48:08.820Z,56.64
2023-01-09T15:49:08.811Z,48.67
2023-01-09T15:50:08.813Z,49.74
2023-01-09T15:51:08.803Z,49.66
2023-01-09T15:52:08.781Z,52.31
2023-01-09T15:53:08.777Z,52.10
2023-01-09T15:54:08.768Z,49.94
2023-01-09T15:55:08.750Z,55.05
2023-01-09T15:56:08.810Z,53.82
2023-01-09T15:57:08.727Z,51.20
2023-01-09T15:58:08.726Z,55.26
2023-01-09T15:59:08.709Z,60.99
2023-01-09T16:00:08.699Z,57.55
2023-01-09T16:01:08.714Z,57.80
2023-01-09T16:02:08.684Z,58.55
2023-01-09T16:03:08.664Z,55.90
2023-01-09T16:04:08.660Z,57.23
2023-01-09T16:05:08.716Z,60.54
2023-01-09T16:08:34.100Z,56.37
2023-01-09T16:09:34.080Z,58.80
2023-01-09T16:10:34.072Z,57.33
2023-01-09T16:11:34.073Z,56.25
2023-01-09T16:12:34.061Z,60.64
2023-01-09T16:13:34.084Z,64.57
2023-01-09T16:14:34.036Z,67.21
2023-01-09T16:15:34.016Z,67.30
2023-01-09T16:16:34.087Z,65.96
2023-01-09T16:17:33.995Z,66.98
2023-01-09T16:18:33.985Z,67.41
2023-01-09T16:19:34.052Z,61.61
2023-01-09T16:20:33.969Z,62.58
2023-01-09T16:21:33.973Z,66.20
2023-01-09T16:22:33.948Z,62.72
2023-01-09T16:23:33.951Z,52.49
2023-01-09T16:24:33.929Z,50.24
2023-01-09T16:25:34.046Z,52.15
2023-01-09T16:26:33.930Z,54.98
2023-01-09T16:27:33.917Z,57.17
2023-01-09T16:28:33.897Z,55.15
2023-01-09T16:29:33.891Z,55.69
2023-01-09T16:30:33.876Z,58.20
2023-01-09T16:31:33.885Z,53.56
2023-01-09T16:32:33.849Z,54.18
2023-01-09T16:33:33.842Z,55.10
2023-01-09T16:34:33.843Z,51.45
2023-01-09T16:35:33.830Z,55.07
2023-01-09T16:36:33.881Z,51.80
2023-01-09T16:37:33.851Z,50.78
2023-01-09T16:38:33.788Z,54.90
2023-01-09T16:39:33.868Z,57.93
2023-01-09T16:40:33.779Z,52.18
2023-01-09T16:41:33.760Z,49.04
2023-01-09T16:42:33.767Z,55.28
2023-01-09T16:43:33.749Z,51.86
2023-01-09T16:44:33.740Z,52.13
2023-01-09T16:45:34.766Z,53.24
2023-01-09T16:46:34.245Z,54.21
2023-01-09T16:47:33.764Z,50.21
2023-01-09T16:48:56.912Z,55.28
2023-01-09T16:49:37.197Z,51.17
2023-01-09T16:50:33.667Z,48.97
2023-01-09T16:51:33.675Z,53.69
2023-01-09T16:52:33.834Z,51.45
2023-01-09T16:53:33.735Z,50.85
2023-01-09T16:54:33.629Z,55.11
2023-01-09T16:55:33.642Z,53.58
2023-01-09T16:56:50.719Z,52.45
2023-01-09T16:57:37.865Z,50.56
2023-01-09T16:58:45.608Z,56.67
2023-01-09T16:59:48.867Z,56.99
2023-01-09T17:00:34.678Z,50.45
2023-01-09T17:01:33.616Z,54.35
2023-01-09T17:02:33.595Z,52.08
2023-01-09T17:03:33.533Z,53.13
2023-01-09T17:04:33.519Z,52.39
2023-01-09T17:05:33.505Z,53.95
2023-01-09T17:06:33.507Z,46.94
2023-01-09T17:07:33.520Z,52.54
2023-01-09T17:08:33.493Z,52.46
2023-01-09T17:09:33.478Z,49.88
2023-01-09T17:10:33.473Z,49.61
2023-01-09T17:11:33.484Z,52.58
2023-01-09T17:12:33.447Z,49.13
2023-01-09T17:13:33.421Z,50.85
2023-01-09T17:14:33.413Z,54.50
2023-01-09T17:15:33.408Z,54.34
2023-01-09T17:16:33.397Z,54.19
2023-01-09T17:17:33.393Z,51.70
2023-01-09T17:18:33.368Z,51.92
2023-01-09T17:19:33.355Z,50.44
2023-01-09T17:20:33.379Z,48.21
2023-01-09T17:21:34.320Z,51.45
2023-01-09T17:22:33.332Z,52.50
2023-01-09T17:23:33.317Z,51.62
2023-01-09T17:24:33.301Z,51.98
2023-01-09T17:25:33.293Z,47.94
2023-01-09T17:26:33.282Z,46.95
2023-01-09T17:27:33.309Z,51.30
2023-01-09T17:28:33.264Z,54.75
2023-01-09T17:29:33.254Z,53.85
2023-01-09T17:30:33.313Z,53.74
2023-01-09T17:31:57.836Z,51.11
2023-01-09T17:32:43.777Z,49.04
2023-01-09T17:36:05.634Z,47.52
2023-01-09T17:37:05.743Z,51.93
2023-01-09T17:38:05.618Z,50.78
2023-01-09T17:39:05.590Z,47.98
2023-01-09T17:40:05.567Z,55.50
2023-01-09T17:41:05.577Z,49.36
2023-01-09T17:42:05.586Z,48.46
2023-01-09T17:43:05.570Z,52.90
2023-01-09T17:44:05.566Z,51.32
2023-01-09T17:45:05.526Z,45.41
2023-01-09T17:46:05.704Z,48.54
2023-01-09T17:47:05.521Z,53.84
2023-01-09T17:48:05.514Z,52.32
2023-01-09T17:49:05.495Z,51.10
2023-01-09T17:50:05.476Z,50.24
2023-01-09T17:51:05.532Z,46.09
2023-01-09T17:52:05.497Z,48.50
2023-01-09T17:53:05.520Z,45.73
2023-01-09T17:54:05.433Z,49.11
2023-01-09T17:55:12.245Z,54.28
2023-01-09T17:56:05.427Z,53.63
2023-01-09T17:57:05.400Z,61.33
2023-01-09T17:58:05.408Z,56.71
2023-01-09T17:59:05.510Z,51.97
2023-01-09T18:00:05.449Z,46.70
2023-01-09T18:01:05.409Z,50.34
2023-01-09T18:02:05.509Z,50.72
2023-01-09T18:03:05.365Z,50.51
2023-01-09T18:04:05.327Z,54.03
2023-01-09T18:05:05.317Z,50.76
2023-01-09T18:06:05.309Z,53.83
2023-01-09T18:07:05.315Z,50.36
2023-01-09T18:08:05.297Z,49.29
2023-01-09T18:09:05.279Z,49.66
2023-01-09T18:10:05.261Z,52.18
2023-01-09T18:11:05.278Z,54.88
2023-01-09T18:12:05.283Z,49.82
2023-01-09T18:13:05.249Z,50.57
2023-01-09T18:14:05.234Z,52.02
2023-01-09T18:15:05.234Z,53.76
2023-01-09T18:16:05.313Z,49.23
2023-01-09T18:17:05.216Z,48.30
2023-01-09T18:18:05.242Z,53.10
2023-01-09T18:19:05.185Z,52.93
2023-01-09T18:20:05.181Z,53.38
2023-01-09T18:21:05.163Z,51.28
2023-01-09T18:22:05.156Z,52.35
2023-01-09T18:23:05.151Z,51.41
2023-01-09T18:24:05.173Z,51.46
2023-01-09T18:25:05.139Z,52.75
2023-01-09T18:26:05.163Z,47.48
2023-01-09T18:27:05.123Z,50.13
2023-01-09T18:28:05.131Z,49.46
2023-01-09T18:29:05.106Z,51.72
2023-01-09T18:30:05.642Z,50.63
2023-01-09T18:31:05.076Z,49.56
2023-01-09T18:32:05.102Z,57.83
2023-01-09T18:33:05.047Z,51.00
2023-01-09T18:34:05.042Z,48.54
2023-01-09T18:35:05.030Z,47.82
2023-01-09T18:36:05.020Z,51.72
2023-01-09T18:37:05.087Z,50.21
2023-01-09T18:38:04.995Z,49.05
2023-01-09T18:39:04.996Z,50.99
2023-01-09T18:40:04.977Z,49.99
2023-01-09T18:41:04.969Z,46.62
2023-01-09T18:42:04.948Z,53.18
2023-01-09T18:43:04.962Z,50.34
2023-01-09T18:44:04.940Z,47.43
2023-01-09T18:45:04.924Z,46.16
2023-01-09T18:46:05.052Z,50.18
2023-01-09T18:47:04.917Z,47.11
2023-01-09T18:48:04.888Z,47.29
2023-01-09T18:49:04.884Z,55.50
2023-01-09T18:50:04.902Z,46.20
2023-01-09T18:51:04.858Z,49.32
2023-01-09T18:52:07.372Z,49.27
2023-01-09T18:53:04.832Z,48.62
2023-01-09T18:54:04.837Z,46.39
2023-01-09T18:55:04.855Z,54.81
2023-01-09T18:56:04.877Z,54.38
2023-01-09T18:57:05.747Z,48.66
2023-01-09T18:58:04.779Z,51.60
2023-01-09T18:59:04.894Z,53.65
2023-01-09T19:00:04.761Z,48.94
2023-01-09T19:01:04.768Z,47.16
2023-01-09T19:02:04.736Z,49.75
2023-01-09T19:03:04.747Z,47.07
2023-01-09T19:04:04.807Z,49.35
2023-01-09T19:05:04.705Z,54.04
2023-01-09T19:06:04.698Z,46.35
2023-01-09T19:07:04.680Z,49.55
2023-01-09T19:08:04.796Z,46.85
2023-01-09T19:09:04.679Z,50.76
2023-01-09T19:10:04.720Z,48.68
2023-01-09T19:11:04.646Z,48.56
2023-01-09T19:12:04.632Z,46.23
2023-01-09T19:13:04.622Z,51.96
2023-01-09T19:14:04.803Z,52.77
2023-01-09T19:15:04.596Z,50.29
2023-01-09T19:16:04.653Z,46.53
2023-01-09T19:17:04.580Z,49.03
2023-01-09T19:18:04.573Z,46.20
2023-01-09T19:19:04.581Z,46.89
2023-01-09T19:20:04.561Z,48.90
2023-01-09T19:21:04.539Z,48.38
2023-01-09T19:22:04.540Z,46.87
2023-01-09T19:23:04.520Z,49.89
2023-01-09T19:24:04.527Z,47.46
2023-01-09T19:25:04.502Z,47.50
2023-01-09T19:26:04.490Z,52.08
2023-01-09T19:27:04.479Z,50.23
2023-01-09T19:28:04.475Z,49.84
2023-01-09T19:29:04.479Z,50.28
2023-01-09T19:30:04.463Z,50.60
2023-01-09T19:31:04.451Z,49.73
2023-01-09T19:32:04.432Z,47.39
2023-01-09T19:33:04.436Z,52.43
2023-01-09T19:34:04.423Z,50.62
2023-01-09T19:35:04.411Z,45.95
2023-01-09T19:36:04.388Z,46.95
2023-01-09T19:37:04.453Z,48.48
2023-01-09T19:38:04.364Z,47.55
2023-01-09T19:39:04.382Z,47.69
2023-01-09T19:40:04.352Z,47.51
2023-01-09T19:41:04.360Z,48.47
2023-01-09T19:42:04.328Z,47.00
2023-01-09T19:43:04.321Z,46.54
2023-01-09T19:44:04.319Z,48.19
2023-01-09T19:45:04.299Z,48.82
2023-01-09T19:46:04.377Z,48.19
2023-01-09T19:47:04.284Z,48.69
2023-01-09T19:48:04.284Z,48.66
2023-01-09T19:49:04.251Z,46.15
2023-01-09T19:50:05.270Z,49.55
2023-01-09T19:51:04.236Z,49.20
2023-01-09T19:52:04.224Z,47.64
2023-01-09T19:53:04.211Z,49.49
2023-01-09T19:54:06.790Z,48.90
2023-01-09T19:55:04.207Z,48.00
2023-01-09T19:56:04.188Z,50.70
2023-01-09T19:57:04.173Z,47.20
2023-01-09T19:58:04.165Z,47.29
2023-01-09T19:59:04.166Z,45.83
2023-01-09T20:00:04.174Z,45.13
2023-01-09T20:01:04.191Z,46.66
2023-01-09T20:02:04.172Z,49.68
2023-01-09T20:03:04.110Z,50.95
2023-01-09T20:04:04.111Z,45.96
2023-01-09T20:05:04.123Z,51.15
2023-01-09T20:06:04.109Z,46.58
2023-01-09T20:07:04.078Z,46.20
2023-01-09T20:08:04.102Z,45.91
2023-01-09T20:09:04.109Z,47.60
2023-01-09T20:10:04.075Z,46.46
2023-01-09T20:11:04.040Z,47.75
2023-01-09T20:12:04.022Z,47.85
2023-01-09T20:13:04.018Z,49.10
2023-01-09T20:14:04.000Z,46.60
2023-01-09T20:15:04.008Z,50.49
2023-01-09T20:16:04.071Z,46.40
2023-01-09T20:17:03.974Z,46.40
2023-01-09T20:18:03.960Z,49.05
2023-01-09T20:19:03.952Z,46.21